This is the latest recevied weather packets stored in our database for station/object OE-11141. If no packets are shown the sender has not sent any weather packets the latest 10 day(s).
| Time | Temp. | Humidity | Pressure | Rain* | Wind** | Luminosity | Snow |
|---|---|---|---|---|---|---|---|
| 1787794505 | 15.56° C | 93% | 1017.8 hPa | 0 mm | - | 0 W/m² | - |
| 1787793905 | 15° C | 94% | 1017.8 hPa | 0 mm | - | 0 W/m² | - |
| 1787793078 | 15.56° C | 94% | 1017.7 hPa | 0 mm | - | 0 W/m² | - |
| 1787792705 | 15.56° C | 94% | 1017.8 hPa | 0 mm | - | 0 W/m² | - |
| 1787792105 | 15.56° C | 92% | 1017.8 hPa | 0 mm | - | 0 W/m² | - |
| 1787791278 | 15.56° C | 92% | 1017.7 hPa | 0 mm | - | 0 W/m² | - |
| 1787790905 | 15.56° C | 92% | 1017.8 hPa | 0 mm | - | 0 W/m² | - |
| 1787790305 | 16.11° C | 91% | 1017.8 hPa | 0 mm | - | 0 W/m² | - |
| 1787789477 | 16.11° C | 91% | 1017.8 hPa | 0 mm | - | 0 W/m² | - |
| 1787789105 | 16.11° C | 90% | 1017.8 hPa | 0 mm | - | 0 W/m² | - |
| 1787788505 | 16.11° C | 91% | 1017.9 hPa | 0 mm | - | 0 W/m² | - |
| 1787787678 | 16.11° C | 91% | 1017.8 hPa | 0 mm | - | 0 W/m² | - |
| 1787787305 | 16.67° C | 88% | 1017.7 hPa | 0 mm | - | 0 W/m² | - |
| 1787786705 | 16.67° C | 88% | 1017.6 hPa | 0 mm | - | 0 W/m² | - |
| 1787786104 | 16.67° C | 87% | 1017.6 hPa | 0 mm | - | 0 W/m² | - |
| 1787785505 | 16.67° C | 87% | 1017.6 hPa | 0 mm | - | 0 W/m² | - |
| 1787784905 | 16.11° C | 88% | 1017.7 hPa | 0 mm | - | 0 W/m² | - |
| 1787784078 | 16.67° C | 88% | 1017.5 hPa | 0 mm | - | 0 W/m² | - |
| 1787783705 | 17.22° C | 85% | 1017.3 hPa | 0 mm | - | 0 W/m² | - |
| 1787783104 | 17.22° C | 86% | 1017.4 hPa | 0 mm | - | 0 W/m² | - |
| 1787782279 | 17.78° C | 83% | 1017.3 hPa | 0 mm | - | 0 W/m² | - |
| 1787781905 | 17.78° C | 83% | 1017.3 hPa | 0 mm | - | 0 W/m² | - |
| 1787781304 | 16.67° C | 86% | 1017.4 hPa | 0 mm | - | 0 W/m² | - |
| 1787780479 | 17.22° C | 87% | 1017.3 hPa | 0 mm | - | 0 W/m² | - |
| 1787780105 | 17.78° C | 84% | 1017.3 hPa | 0 mm | - | 0 W/m² | - |
* Rain latest hour (hover to see other rain measurements)
** Current wind speed in m/s (hover to see current wind gust speed)